createdAt,value
2018-07-31T00:01:47.864Z,24.59
2018-07-31T00:04:18.383Z,24.50
2018-07-31T00:06:48.914Z,24.55
2018-07-31T00:09:19.298Z,24.56
2018-07-31T00:11:49.820Z,24.55
2018-07-31T00:14:20.250Z,24.60
2018-07-31T00:16:50.748Z,24.49
2018-07-31T00:19:21.220Z,24.49
2018-07-31T00:21:51.590Z,24.52
2018-07-31T00:24:22.151Z,24.53
2018-07-31T00:26:52.587Z,24.58
2018-07-31T00:29:22.991Z,24.61
2018-07-31T00:31:53.384Z,24.58
2018-07-31T00:34:23.816Z,24.59
2018-07-31T00:36:54.283Z,24.61
2018-07-31T00:39:24.655Z,24.68
2018-07-31T00:41:55.078Z,24.68
2018-07-31T00:44:25.550Z,24.62
2018-07-31T00:46:55.975Z,24.67
2018-07-31T00:49:26.350Z,24.64
2018-07-31T00:51:56.852Z,24.60
2018-07-31T00:54:27.276Z,24.55
2018-07-31T00:56:57.659Z,24.56
2018-07-31T00:59:28.128Z,24.50
2018-07-31T01:01:58.664Z,24.49
2018-07-31T01:04:29.156Z,24.49
2018-07-31T01:06:59.604Z,24.50
2018-07-31T01:09:30.085Z,24.57
2018-07-31T01:12:00.591Z,24.60
2018-07-31T01:14:31.096Z,24.61
2018-07-31T01:17:01.615Z,24.60
2018-07-31T01:19:32.035Z,24.67
2018-07-31T01:22:02.580Z,24.62
2018-07-31T01:24:33.042Z,24.67
2018-07-31T01:27:03.490Z,24.62
2018-07-31T01:29:33.899Z,24.63
2018-07-31T01:32:04.356Z,24.67
2018-07-31T01:34:34.854Z,24.18
2018-07-31T01:37:05.315Z,24.60
2018-07-31T01:39:35.767Z,24.62
2018-07-31T01:42:06.301Z,24.63
2018-07-31T01:44:36.735Z,24.57
2018-07-31T01:47:07.242Z,24.55
2018-07-31T01:49:37.684Z,24.56
2018-07-31T01:52:08.244Z,24.53
2018-07-31T01:54:38.652Z,24.60
2018-07-31T01:57:09.243Z,24.58
2018-07-31T01:59:39.818Z,24.54
2018-07-31T02:02:10.292Z,24.57
2018-07-31T02:04:40.709Z,24.60
2018-07-31T02:07:11.148Z,24.64
2018-07-31T02:09:41.599Z,24.64
2018-07-31T02:12:11.982Z,24.74
2018-07-31T02:14:42.498Z,24.58
2018-07-31T02:17:12.915Z,24.62
2018-07-31T02:19:43.395Z,24.48
2018-07-31T02:22:13.827Z,24.45
2018-07-31T02:24:44.311Z,24.45
2018-07-31T02:27:14.743Z,23.79
2018-07-31T02:29:50.183Z,24.41
2018-07-31T02:32:20.647Z,24.40
2018-07-31T02:34:51.089Z,24.40
2018-07-31T02:37:21.614Z,24.40
2018-07-31T02:39:51.995Z,24.43
2018-07-31T02:42:22.429Z,24.41
2018-07-31T02:44:52.862Z,24.49
2018-07-31T02:47:23.338Z,24.38
2018-07-31T02:49:53.837Z,24.44
2018-07-31T02:52:24.399Z,24.47
2018-07-31T02:54:54.892Z,24.46
2018-07-31T02:57:25.300Z,24.56
2018-07-31T02:59:55.724Z,24.52
2018-07-31T03:02:26.107Z,24.58
2018-07-31T03:04:56.590Z,24.56
2018-07-31T03:07:26.976Z,24.57
2018-07-31T03:09:57.534Z,24.61
2018-07-31T03:12:28.020Z,24.56
2018-07-31T03:14:58.477Z,24.56
2018-07-31T03:17:28.890Z,24.49
2018-07-31T03:19:59.263Z,24.41
2018-07-31T03:22:29.751Z,24.37
2018-07-31T03:25:00.250Z,24.35
2018-07-31T03:27:30.694Z,24.31
2018-07-31T03:30:01.104Z,24.26
2018-07-31T03:32:31.533Z,24.21
2018-07-31T03:35:01.960Z,24.17
2018-07-31T03:37:32.480Z,24.23
2018-07-31T03:40:02.943Z,24.19
2018-07-31T03:42:33.356Z,24.24
2018-07-31T03:45:03.940Z,24.24
2018-07-31T03:47:34.549Z,24.20
2018-07-31T03:50:05.266Z,24.21
2018-07-31T03:52:35.659Z,24.23
2018-07-31T03:55:06.244Z,24.30
2018-07-31T03:57:36.675Z,24.29
2018-07-31T04:00:07.732Z,24.29
2018-07-31T04:02:38.183Z,24.23
2018-07-31T04:05:08.679Z,24.30
2018-07-31T04:07:39.164Z,24.29
2018-07-31T04:10:09.559Z,24.33
2018-07-31T04:12:39.996Z,24.41
2018-07-31T04:15:10.411Z,24.46
2018-07-31T04:17:40.841Z,24.39
2018-07-31T04:20:11.243Z,24.41
2018-07-31T04:22:41.753Z,24.42
2018-07-31T04:25:12.181Z,24.47
2018-07-31T04:27:42.691Z,24.54
2018-07-31T04:30:13.212Z,24.51
2018-07-31T04:32:43.636Z,24.53
2018-07-31T04:35:14.136Z,24.52
2018-07-31T04:37:44.587Z,24.51
2018-07-31T04:40:15.077Z,24.54
2018-07-31T04:42:45.495Z,24.58
2018-07-31T04:45:15.987Z,24.54
2018-07-31T04:47:46.469Z,24.50
2018-07-31T04:50:16.865Z,24.49
2018-07-31T04:52:47.293Z,24.57
2018-07-31T04:55:17.826Z,24.60
2018-07-31T04:57:48.309Z,24.64
2018-07-31T05:00:18.831Z,24.69
2018-07-31T05:02:49.196Z,24.78
2018-07-31T05:05:19.730Z,24.88
2018-07-31T05:07:50.115Z,25.03
2018-07-31T05:10:20.574Z,25.08
2018-07-31T05:12:51.043Z,25.20
2018-07-31T05:15:21.698Z,25.20
2018-07-31T05:17:52.245Z,25.19
2018-07-31T05:20:22.664Z,25.20
2018-07-31T05:22:53.689Z,25.20
2018-07-31T05:25:24.249Z,25.31
2018-07-31T05:27:54.631Z,25.31
2018-07-31T05:30:25.124Z,25.28
2018-07-31T05:32:55.657Z,25.43
2018-07-31T05:35:26.140Z,25.54
2018-07-31T05:37:56.677Z,25.55
2018-07-31T05:40:27.145Z,25.65
2018-07-31T05:42:57.575Z,25.70
2018-07-31T05:45:28.032Z,25.65
2018-07-31T05:47:58.395Z,25.71
2018-07-31T05:50:28.850Z,25.77
2018-07-31T05:52:59.209Z,25.78
2018-07-31T05:55:29.633Z,25.78
2018-07-31T05:58:00.010Z,25.70
2018-07-31T06:00:30.507Z,25.77
2018-07-31T06:03:00.919Z,25.80
2018-07-31T06:05:31.681Z,25.85
2018-07-31T06:08:02.079Z,25.77
2018-07-31T06:10:32.560Z,25.79
2018-07-31T06:13:02.966Z,26.04
2018-07-31T06:15:33.420Z,26.08
2018-07-31T06:18:03.867Z,26.01
2018-07-31T06:20:34.281Z,26.12
2018-07-31T06:23:04.789Z,26.20
2018-07-31T06:25:35.386Z,26.24
2018-07-31T06:28:05.939Z,26.43
2018-07-31T06:30:36.400Z,26.40
2018-07-31T06:33:06.942Z,26.41
2018-07-31T06:35:37.315Z,26.65
2018-07-31T06:38:07.917Z,26.56
2018-07-31T06:40:38.363Z,26.75
2018-07-31T06:43:08.891Z,26.97
2018-07-31T06:45:39.416Z,27.21
2018-07-31T06:48:09.944Z,27.25
2018-07-31T06:50:40.443Z,27.38
2018-07-31T06:53:10.971Z,27.56
2018-07-31T06:55:41.516Z,27.76
2018-07-31T06:58:12.191Z,27.77
2018-07-31T07:00:42.689Z,27.78
2018-07-31T07:03:13.160Z,27.85
2018-07-31T07:05:43.643Z,27.97
2018-07-31T07:08:14.086Z,28.02
2018-07-31T07:10:44.482Z,28.12
2018-07-31T07:13:14.975Z,28.18
2018-07-31T07:15:45.531Z,28.29
2018-07-31T07:18:16.168Z,28.15
2018-07-31T07:20:46.787Z,28.12
2018-07-31T07:23:17.344Z,28.24
2018-07-31T07:25:47.928Z,28.40
2018-07-31T07:28:18.406Z,28.53
2018-07-31T07:30:48.984Z,28.42
2018-07-31T07:33:19.480Z,28.26
2018-07-31T07:35:49.998Z,28.50
2018-07-31T07:38:20.611Z,28.49
2018-07-31T07:40:51.340Z,28.55
2018-07-31T07:43:21.836Z,28.60
2018-07-31T07:45:52.375Z,28.06
2018-07-31T07:48:22.979Z,28.63
2018-07-31T07:50:54.119Z,28.59
2018-07-31T07:53:24.730Z,28.84
2018-07-31T07:55:55.324Z,28.77
2018-07-31T07:58:25.816Z,28.78
2018-07-31T08:00:56.355Z,28.67
2018-07-31T08:03:26.907Z,28.60
2018-07-31T08:05:57.439Z,28.79
2018-07-31T08:08:28.525Z,28.88
2018-07-31T08:11:00.291Z,28.97
2018-07-31T08:13:31.046Z,29.04
2018-07-31T08:16:01.483Z,29.11
2018-07-31T08:18:32.143Z,29.42
2018-07-31T08:21:02.681Z,29.48
2018-07-31T08:23:33.209Z,29.42
2018-07-31T08:26:03.711Z,29.46
2018-07-31T08:28:34.252Z,29.44
2018-07-31T08:31:04.779Z,29.28
2018-07-31T08:33:35.415Z,29.16
2018-07-31T08:36:06.047Z,29.12
2018-07-31T08:38:36.591Z,29.29
2018-07-31T08:41:07.127Z,29.24
2018-07-31T08:43:37.662Z,29.37
2018-07-31T08:46:08.256Z,29.32
2018-07-31T08:48:38.811Z,29.22
2018-07-31T08:51:09.465Z,29.29
2018-07-31T08:53:39.999Z,29.28
2018-07-31T08:56:10.487Z,29.34
2018-07-31T08:58:41.164Z,29.23
2018-07-31T09:01:11.591Z,29.33
2018-07-31T09:03:42.112Z,29.58
2018-07-31T09:06:12.530Z,29.63
2018-07-31T09:08:43.068Z,29.65
2018-07-31T09:11:13.442Z,29.58
2018-07-31T09:13:43.926Z,29.57
2018-07-31T09:16:14.335Z,29.63
2018-07-31T09:18:44.819Z,29.77
2018-07-31T09:21:15.259Z,29.85
2018-07-31T09:23:45.764Z,29.88
2018-07-31T09:26:16.176Z,29.99
2018-07-31T09:28:46.666Z,29.90
2018-07-31T09:31:19.022Z,29.40
2018-07-31T09:33:49.523Z,30.05
2018-07-31T09:36:20.099Z,29.95
2018-07-31T09:38:50.840Z,29.88
2018-07-31T09:41:21.885Z,29.94
2018-07-31T09:43:52.579Z,29.90
2018-07-31T09:46:23.148Z,29.93
2018-07-31T09:48:54.381Z,30.01
2018-07-31T09:51:24.814Z,30.26
2018-07-31T09:53:55.318Z,30.20
2018-07-31T09:56:25.723Z,30.25
2018-07-31T09:58:56.521Z,30.08
2018-07-31T10:01:26.951Z,30.05
2018-07-31T10:03:57.412Z,30.23
2018-07-31T10:06:27.791Z,30.48
2018-07-31T10:08:58.319Z,30.32
2018-07-31T10:11:28.807Z,29.99
2018-07-31T10:13:59.342Z,30.64
2018-07-31T10:16:29.744Z,30.84
2018-07-31T10:19:00.415Z,30.81
2018-07-31T10:21:30.827Z,30.79
2018-07-31T10:24:01.400Z,30.85
2018-07-31T10:26:31.999Z,30.86
2018-07-31T10:29:02.498Z,30.83
2018-07-31T10:31:33.032Z,30.88
2018-07-31T10:34:03.684Z,31.07
2018-07-31T10:36:34.188Z,31.09
2018-07-31T10:39:06.460Z,31.37
2018-07-31T10:41:37.155Z,31.45
2018-07-31T10:44:07.816Z,31.49
2018-07-31T10:46:38.242Z,31.29
2018-07-31T10:49:08.839Z,31.25
2018-07-31T10:51:39.290Z,31.17
2018-07-31T10:54:09.988Z,31.25
2018-07-31T10:56:40.658Z,31.22
2018-07-31T10:59:11.263Z,31.30
2018-07-31T11:01:41.716Z,31.30
2018-07-31T11:04:12.335Z,31.32
2018-07-31T11:06:42.802Z,31.25
2018-07-31T11:09:13.254Z,31.48
2018-07-31T11:11:43.793Z,31.46
2018-07-31T11:14:14.354Z,31.44
2018-07-31T11:16:45.078Z,31.53
2018-07-31T11:19:15.483Z,31.70
2018-07-31T11:21:45.994Z,31.35
2018-07-31T11:24:16.448Z,31.17
2018-07-31T11:26:47.044Z,31.34
2018-07-31T11:29:17.574Z,31.48
2018-07-31T11:31:48.044Z,31.57
2018-07-31T11:34:18.603Z,31.60
2018-07-31T11:36:49.188Z,31.66
2018-07-31T11:39:19.687Z,31.66
2018-07-31T11:41:50.277Z,31.82
2018-07-31T11:44:20.735Z,31.96
2018-07-31T11:46:51.162Z,32.03
2018-07-31T11:49:21.646Z,31.30
2018-07-31T11:51:52.213Z,31.26
2018-07-31T11:54:22.742Z,30.55
2018-07-31T11:56:53.411Z,30.52
2018-07-31T11:59:23.920Z,30.68
2018-07-31T12:01:54.556Z,30.54
2018-07-31T12:04:25.040Z,30.56
2018-07-31T12:06:55.467Z,30.63
2018-07-31T12:09:26.000Z,30.78
2018-07-31T12:11:56.485Z,30.82
2018-07-31T12:14:26.923Z,30.81
2018-07-31T12:16:58.658Z,30.65
2018-07-31T12:19:29.064Z,30.54
2018-07-31T12:21:59.596Z,30.72
2018-07-31T12:24:29.980Z,30.99
2018-07-31T12:27:00.471Z,31.08
2018-07-31T12:29:31.036Z,31.18
2018-07-31T12:32:01.533Z,31.31
2018-07-31T12:34:32.052Z,31.48
2018-07-31T12:37:02.456Z,31.50
2018-07-31T12:39:32.920Z,31.57
2018-07-31T12:42:03.340Z,31.64
2018-07-31T12:44:33.767Z,31.76
2018-07-31T12:47:04.444Z,31.82
2018-07-31T12:49:34.975Z,31.80
2018-07-31T12:52:05.449Z,31.89
2018-07-31T12:54:35.924Z,31.96
2018-07-31T12:57:06.511Z,32.23
2018-07-31T12:59:36.946Z,32.24
2018-07-31T13:02:07.403Z,32.13
2018-07-31T13:04:37.843Z,32.17
2018-07-31T13:07:08.255Z,32.29
2018-07-31T13:09:39.090Z,32.20
2018-07-31T13:12:10.594Z,32.24
2018-07-31T13:14:41.144Z,32.25
2018-07-31T13:17:13.763Z,32.25
2018-07-31T13:19:44.547Z,32.30
2018-07-31T13:22:15.164Z,32.38
2018-07-31T13:24:45.736Z,32.35
2018-07-31T13:27:16.211Z,32.39
2018-07-31T13:29:46.985Z,32.50
2018-07-31T13:32:17.572Z,31.71
2018-07-31T13:34:48.156Z,32.41
2018-07-31T13:37:18.671Z,32.29
2018-07-31T13:39:49.199Z,32.28
2018-07-31T13:42:19.823Z,32.12
2018-07-31T13:44:50.401Z,32.26
2018-07-31T13:47:20.931Z,32.32
2018-07-31T13:49:51.431Z,32.33
2018-07-31T13:52:22.907Z,32.31
2018-07-31T13:54:53.413Z,32.41
2018-07-31T13:57:23.923Z,32.36
2018-07-31T13:59:54.434Z,32.45
2018-07-31T14:02:25.012Z,32.49
2018-07-31T14:04:55.527Z,32.31
2018-07-31T14:07:25.975Z,32.53
2018-07-31T14:09:56.500Z,32.47
2018-07-31T14:12:27.037Z,32.50
2018-07-31T14:14:57.547Z,32.19
2018-07-31T14:17:28.125Z,32.14
2018-07-31T14:19:58.603Z,31.71
2018-07-31T14:22:29.095Z,31.79
2018-07-31T14:24:59.566Z,31.94
2018-07-31T14:27:30.153Z,31.67
2018-07-31T14:30:00.684Z,31.72
2018-07-31T14:32:31.589Z,31.80
2018-07-31T14:35:02.051Z,31.30
2018-07-31T14:37:32.444Z,31.22
2018-07-31T14:40:02.868Z,30.95
2018-07-31T14:42:33.291Z,31.03
2018-07-31T14:45:03.815Z,30.99
2018-07-31T14:47:34.221Z,30.67
2018-07-31T14:50:05.239Z,30.55
2018-07-31T14:52:35.698Z,30.18
2018-07-31T14:55:06.422Z,29.87
2018-07-31T14:57:36.872Z,29.88
2018-07-31T15:00:08.045Z,29.79
2018-07-31T15:02:38.509Z,29.72
2018-07-31T15:05:08.949Z,29.70
2018-07-31T15:07:39.416Z,29.58
2018-07-31T15:10:10.132Z,29.42
2018-07-31T15:12:40.571Z,29.60
2018-07-31T15:15:10.944Z,29.70
2018-07-31T15:17:41.487Z,29.78
2018-07-31T15:20:11.887Z,29.65
2018-07-31T15:22:42.451Z,29.62
2018-07-31T15:25:12.858Z,29.54
2018-07-31T15:27:43.340Z,29.49
2018-07-31T15:30:13.824Z,29.68
2018-07-31T15:32:44.300Z,29.70
2018-07-31T15:35:14.756Z,29.75
2018-07-31T15:37:45.200Z,29.82
2018-07-31T15:40:15.604Z,29.85
2018-07-31T15:42:46.060Z,29.63
2018-07-31T15:45:16.436Z,29.56
2018-07-31T15:47:46.871Z,29.52
2018-07-31T15:50:17.295Z,29.67
2018-07-31T15:52:47.794Z,29.59
2018-07-31T15:55:18.284Z,29.58
2018-07-31T15:57:48.828Z,29.44
2018-07-31T16:00:19.216Z,29.49
2018-07-31T16:02:49.644Z,29.41
2018-07-31T16:05:20.042Z,29.25
2018-07-31T16:07:50.463Z,29.21
2018-07-31T16:10:20.851Z,29.24
2018-07-31T16:12:51.314Z,29.32
2018-07-31T16:15:21.791Z,29.31
2018-07-31T16:17:52.215Z,29.24
2018-07-31T16:20:22.712Z,28.95
2018-07-31T16:22:53.172Z,28.93
2018-07-31T16:25:23.628Z,28.93
2018-07-31T16:27:54.148Z,28.93
2018-07-31T16:30:24.597Z,28.84
2018-07-31T16:32:55.060Z,28.86
2018-07-31T16:35:25.522Z,28.80
2018-07-31T16:37:55.947Z,28.74
2018-07-31T16:40:26.384Z,28.80
2018-07-31T16:42:56.858Z,28.83
2018-07-31T16:45:27.414Z,28.83
2018-07-31T16:47:57.921Z,28.91
2018-07-31T16:50:28.297Z,28.92
2018-07-31T16:52:58.803Z,28.98
2018-07-31T16:55:29.234Z,28.87
2018-07-31T16:57:59.599Z,28.86
2018-07-31T17:00:30.030Z,28.85
2018-07-31T17:03:00.407Z,28.82
2018-07-31T17:05:30.861Z,28.77
2018-07-31T17:08:01.251Z,28.72
2018-07-31T17:10:31.736Z,28.70
2018-07-31T17:13:02.176Z,28.57
2018-07-31T17:15:32.596Z,27.97
2018-07-31T17:18:03.015Z,28.45
2018-07-31T17:20:33.503Z,28.47
2018-07-31T17:23:03.888Z,28.29
2018-07-31T17:25:34.331Z,28.30
2018-07-31T17:28:04.768Z,28.28
2018-07-31T17:30:35.147Z,28.24
2018-07-31T17:33:05.596Z,28.20
2018-07-31T17:35:36.039Z,28.16
2018-07-31T17:38:06.740Z,28.13
2018-07-31T17:40:37.143Z,28.14
2018-07-31T17:43:07.564Z,28.00
2018-07-31T17:45:37.935Z,27.84
2018-07-31T17:48:08.400Z,27.76
2018-07-31T17:50:38.783Z,27.80
2018-07-31T17:53:09.183Z,27.75
2018-07-31T17:55:39.585Z,27.77
2018-07-31T17:58:10.039Z,27.66
2018-07-31T18:00:40.402Z,27.58
2018-07-31T18:03:10.854Z,27.61
2018-07-31T18:05:41.278Z,27.57
2018-07-31T18:08:11.691Z,27.56
2018-07-31T18:10:42.075Z,27.54
2018-07-31T18:13:12.568Z,27.49
2018-07-31T18:15:43.034Z,27.40
2018-07-31T18:18:13.507Z,27.37
2018-07-31T18:20:43.899Z,27.30
2018-07-31T18:23:14.391Z,27.27
2018-07-31T18:25:44.759Z,27.23
2018-07-31T18:28:15.216Z,27.17
2018-07-31T18:30:45.717Z,27.16
2018-07-31T18:33:16.151Z,27.05
2018-07-31T18:35:46.564Z,26.33
2018-07-31T18:38:17.082Z,26.90
2018-07-31T18:40:47.532Z,26.85
2018-07-31T18:43:17.921Z,26.78
2018-07-31T18:45:48.520Z,26.72
2018-07-31T18:48:18.968Z,26.68
2018-07-31T18:50:49.391Z,26.58
2018-07-31T18:53:19.806Z,26.61
2018-07-31T18:55:50.200Z,26.57
2018-07-31T18:58:20.567Z,26.53
2018-07-31T19:00:51.025Z,26.54
2018-07-31T19:03:21.534Z,26.51
2018-07-31T19:05:51.923Z,26.57
2018-07-31T19:08:22.387Z,26.59
2018-07-31T19:10:52.793Z,26.55
2018-07-31T19:13:23.195Z,26.49
2018-07-31T19:15:53.650Z,26.51
2018-07-31T19:18:24.151Z,26.53
2018-07-31T19:20:54.669Z,26.47
2018-07-31T19:23:25.109Z,26.38
2018-07-31T19:25:55.580Z,26.33
2018-07-31T19:28:25.943Z,26.18
2018-07-31T19:30:56.351Z,26.19
2018-07-31T19:33:26.873Z,26.18
2018-07-31T19:35:57.267Z,26.18
2018-07-31T19:38:27.715Z,26.19
2018-07-31T19:40:58.160Z,26.13
2018-07-31T19:43:28.621Z,26.13
2018-07-31T19:45:59.013Z,26.11
2018-07-31T19:48:29.439Z,26.07
2018-07-31T19:50:59.828Z,26.17
2018-07-31T19:53:30.252Z,26.09
2018-07-31T19:56:00.702Z,26.12
2018-07-31T19:58:31.180Z,26.12
2018-07-31T20:01:01.681Z,26.10
2018-07-31T20:03:32.145Z,26.12
2018-07-31T20:06:02.639Z,26.11
2018-07-31T20:08:33.064Z,26.13
2018-07-31T20:11:03.552Z,26.06
2018-07-31T20:13:33.933Z,26.09
2018-07-31T20:16:05.054Z,26.10
2018-07-31T20:18:35.731Z,26.11
2018-07-31T20:21:06.154Z,26.10
2018-07-31T20:23:36.588Z,26.10
2018-07-31T20:26:07.224Z,26.10
2018-07-31T20:28:37.660Z,26.07
2018-07-31T20:31:08.104Z,26.00
2018-07-31T20:33:38.657Z,25.99
2018-07-31T20:36:09.096Z,25.97
2018-07-31T20:38:39.603Z,25.96
2018-07-31T20:41:10.012Z,25.90
2018-07-31T20:43:40.404Z,25.84
2018-07-31T20:46:10.872Z,25.80
2018-07-31T20:48:41.238Z,25.73
2018-07-31T20:51:11.707Z,25.72
2018-07-31T20:53:42.247Z,25.72
2018-07-31T20:56:12.771Z,25.66
2018-07-31T20:58:43.243Z,25.62
2018-07-31T21:01:13.900Z,25.53
2018-07-31T21:03:44.370Z,25.59
2018-07-31T21:06:14.845Z,25.47
2018-07-31T21:08:45.286Z,25.46
2018-07-31T21:11:15.923Z,25.50
2018-07-31T21:13:46.366Z,25.48
2018-07-31T21:16:16.858Z,25.50
2018-07-31T21:18:47.218Z,25.38
2018-07-31T21:21:17.700Z,24.84
2018-07-31T21:23:48.208Z,25.49
2018-07-31T21:26:18.616Z,25.39
2018-07-31T21:28:48.993Z,25.39
2018-07-31T21:31:19.417Z,25.43
2018-07-31T21:33:49.915Z,25.38
2018-07-31T21:36:20.323Z,25.32
2018-07-31T21:38:50.740Z,25.28
2018-07-31T21:41:21.229Z,25.39
2018-07-31T21:43:51.812Z,25.31
2018-07-31T21:46:22.335Z,25.35
2018-07-31T21:48:52.865Z,25.28
2018-07-31T21:51:23.305Z,25.33
2018-07-31T21:53:53.719Z,25.27
2018-07-31T21:56:24.076Z,25.22
2018-07-31T21:58:54.507Z,25.20
2018-07-31T22:01:24.927Z,25.15
2018-07-31T22:03:55.433Z,25.04
2018-07-31T22:06:25.884Z,25.03
2018-07-31T22:08:56.298Z,24.95
2018-07-31T22:11:26.687Z,24.86
2018-07-31T22:13:57.166Z,24.75
2018-07-31T22:16:27.556Z,24.74
2018-07-31T22:18:58.039Z,24.65
2018-07-31T22:21:28.414Z,24.62
2018-07-31T22:23:58.850Z,24.62
2018-07-31T22:26:29.288Z,24.56
2018-07-31T22:28:59.715Z,24.59
2018-07-31T22:31:30.084Z,24.62
2018-07-31T22:34:00.575Z,24.55
2018-07-31T22:36:30.947Z,24.50
2018-07-31T22:39:01.373Z,24.44
2018-07-31T22:41:31.850Z,24.44
2018-07-31T22:44:02.218Z,24.38
2018-07-31T22:46:32.671Z,24.39
2018-07-31T22:49:03.227Z,24.43
2018-07-31T22:51:33.740Z,24.37
2018-07-31T22:54:04.230Z,24.36
2018-07-31T22:56:34.731Z,24.33
2018-07-31T22:59:05.159Z,24.26
2018-07-31T23:01:35.631Z,24.17
2018-07-31T23:04:06.101Z,24.20
2018-07-31T23:06:36.543Z,24.09
2018-07-31T23:09:09.500Z,24.12
2018-07-31T23:11:39.959Z,24.11
2018-07-31T23:14:10.537Z,24.16
2018-07-31T23:16:40.970Z,24.18
2018-07-31T23:19:11.373Z,24.20
2018-07-31T23:21:41.827Z,24.13
2018-07-31T23:24:12.264Z,24.15
2018-07-31T23:26:42.724Z,24.17
2018-07-31T23:29:13.146Z,24.17
2018-07-31T23:31:43.608Z,24.14
2018-07-31T23:34:14.070Z,24.19
2018-07-31T23:36:44.572Z,24.14
2018-07-31T23:39:15.016Z,24.07
2018-07-31T23:41:45.435Z,24.14
2018-07-31T23:44:15.812Z,24.11
2018-07-31T23:46:46.308Z,23.94
2018-07-31T23:49:16.719Z,23.94
2018-07-31T23:51:47.176Z,23.86
2018-07-31T23:54:17.565Z,23.90
2018-07-31T23:56:48.019Z,23.87
2018-07-31T23:59:18.443Z,23.88
